METAR AND TAF INFORMATION
METAR FOR HLLB
ADDS - METARS form results

(1829 UTC 15 August 2018)
Data provider http://aviationweather.gov/adds/metars/
 
METAR text: HLLB 151800Z 35016KT 8000 SCT020 27/22 Q1014
Conditions at: HLLB (BENINA/BENGHAZI , LY) observed 1800 UTC 15 August 2018
Temperature: 27.0°C (81°F)
Dewpoint: 22.0°C (72°F) [RH = 74%]
Pressure (altimeter): 29.94 inches Hg (1014.0 mb)
Winds: from the N (350 degrees) at 18 MPH (16 knots; 8.3 m/s)
Visibility: 5 miles (8 km)
Ceiling: at least 12,000 feet AGL
Clouds: scattered clouds at 2000 feet AGL
Weather: no significant weather observed at this time

METAR text: HLLB 151750Z HLLB 35016KT 8000 SCT020 27/22 Q1014
Conditions at: HLLB (BENINA/BENGHAZI , LY) observed 1750 UTC 15 August 2018
Temperature: 27.0°C (81°F)
Dewpoint: 22.0°C (72°F) [RH = 74%]
Pressure (altimeter): 29.94 inches Hg (1014.0 mb)
Winds: from the N (350 degrees) at 18 MPH (16 knots; 8.3 m/s)
Visibility: 5 miles (8 km)
Ceiling: at least 12,000 feet AGL
Clouds: scattered clouds at 2000 feet AGL
Weather: no significant weather observed at this time

METAR text: HLLB 151730Z 34018KT 8000 SCT020 28/22 Q1014
Conditions at: HLLB (BENINA/BENGHAZI , LY) observed 1730 UTC 15 August 2018
Temperature: 28.0°C (82°F)
Dewpoint: 22.0°C (72°F) [RH = 70%]
Pressure (altimeter): 29.94 inches Hg (1014.0 mb)
Winds: from the NNW (340 degrees) at 21 MPH (18 knots; 9.4 m/s)
Visibility: 5 miles (8 km)
Ceiling: at least 12,000 feet AGL
Clouds: scattered clouds at 2000 feet AGL
Weather: no significant weather observed at this time

 AIRPORT MAP

 RUNWAY INFORMATION
Runway 15L Runway length 11732 ft Runway width 148 ft
Runway elevation 372 ft Runway displaced threshold 0 ft Runway heading 151
Runway 33R Runway length 11732 ft Runway width 148 ft
Runway elevation 433 ft Runway displaced threshold 0 ft Runway heading 331
Runway 15R Runway length 11731 ft Runway width 148 ft
Runway elevation 372 ft Runway displaced threshold 0 ft Runway heading 151
Runway 33L Runway length 11731 ft Runway width 148 ft
Runway elevation 429 ft Runway displaced threshold 0 ft Runway heading 331

 AIRPORT FREQUENCIES
Type APP Name BENGHAZI A Frequency 126.5 MHZ
Type ARR Name ARR Frequency 127 MHZ
Type DEP Name DEP Frequency 127 MHZ
Type GND Name GND Frequency 121.3 MHZ
Type TWR Name TWR Frequency 118.1 MHZ

 AIRPORT NEAR NAVIGATION AIDS
Type VOR-DME Name Benina Frequency 117400 KHZ
Type NDB Name Benina Frequency 342 KHZ
Type VOR-DME Name Sirte Frequency 117000 KHZ



Powered by Heron Airways VA. All Rights Reserved © 2009 [v2.6.2]